createdAt,value
2022-12-31T00:02:16.527Z,28.14
2022-12-31T00:04:47.194Z,28.17
2022-12-31T00:07:18.069Z,28.22
2022-12-31T00:09:48.824Z,28.25
2022-12-31T00:12:19.439Z,28.26
2022-12-31T00:14:50.077Z,28.25
2022-12-31T00:17:20.759Z,28.28
2022-12-31T00:19:51.354Z,28.28
2022-12-31T00:22:21.929Z,28.30
2022-12-31T00:24:52.875Z,28.32
2022-12-31T00:27:23.849Z,28.33
2022-12-31T00:29:57.161Z,28.35
2022-12-31T00:32:30.571Z,28.28
2022-12-31T00:35:01.775Z,28.27
2022-12-31T00:37:32.414Z,28.28
2022-12-31T00:40:03.004Z,28.18
2022-12-31T00:42:33.921Z,28.13
2022-12-31T00:45:04.823Z,28.14
2022-12-31T00:47:35.696Z,28.12
2022-12-31T00:50:06.690Z,28.13
2022-12-31T00:52:37.704Z,28.14
2022-12-31T00:55:08.819Z,28.14
2022-12-31T00:57:39.801Z,28.14
2022-12-31T01:00:10.795Z,28.16
2022-12-31T01:02:41.492Z,28.17
2022-12-31T01:05:12.204Z,28.16
2022-12-31T01:07:42.778Z,28.18
2022-12-31T01:10:13.899Z,28.20
2022-12-31T01:12:44.457Z,28.19
2022-12-31T01:15:15.667Z,28.20
2022-12-31T01:17:46.587Z,28.41
2022-12-31T01:20:17.888Z,28.43
2022-12-31T01:22:48.459Z,28.45
2022-12-31T01:25:19.601Z,28.42
2022-12-31T01:27:50.331Z,28.44
2022-12-31T01:30:21.512Z,28.44
2022-12-31T01:32:52.241Z,28.42
2022-12-31T01:35:22.937Z,28.43
2022-12-31T01:37:53.522Z,28.41
2022-12-31T01:40:24.138Z,28.24
2022-12-31T01:42:58.389Z,28.19
2022-12-31T01:45:28.927Z,28.20
2022-12-31T01:48:01.550Z,28.22
2022-12-31T01:50:37.591Z,28.23
2022-12-31T01:53:09.531Z,28.24
2022-12-31T01:55:45.503Z,28.26
2022-12-31T01:58:22.046Z,28.28
2022-12-31T02:00:54.775Z,28.28
2022-12-31T02:03:26.399Z,28.31
2022-12-31T02:06:17.111Z,28.32
2022-12-31T02:08:47.968Z,28.33
2022-12-31T02:11:26.924Z,28.36
2022-12-31T02:14:00.931Z,28.36
2022-12-31T02:16:57.589Z,28.37
2022-12-31T02:19:46.106Z,28.40
2022-12-31T02:22:35.300Z,28.42
2022-12-31T02:25:31.812Z,28.42
2022-12-31T02:28:17.934Z,28.43
2022-12-31T02:30:51.931Z,28.45
2022-12-31T02:33:34.481Z,28.46
2022-12-31T02:36:08.015Z,28.47
2022-12-31T02:38:41.638Z,28.48
2022-12-31T02:41:36.773Z,28.50
2022-12-31T02:44:27.828Z,28.52
2022-12-31T02:46:58.528Z,28.54
2022-12-31T02:49:29.663Z,28.56
2022-12-31T02:52:03.053Z,28.57
2022-12-31T02:54:56.171Z,28.59
2022-12-31T02:57:29.796Z,28.60
2022-12-31T03:00:23.959Z,28.62
2022-12-31T03:02:55.862Z,28.63
2022-12-31T03:05:29.288Z,28.66
2022-12-31T03:07:59.908Z,28.68
2022-12-31T03:10:30.464Z,28.70
2022-12-31T03:13:01.211Z,28.72
2022-12-31T03:15:33.436Z,28.73
2022-12-31T03:18:06.187Z,28.76
2022-12-31T03:21:02.657Z,28.78
2022-12-31T03:23:34.446Z,28.79
2022-12-31T03:26:11.529Z,28.80
2022-12-31T03:28:43.978Z,28.81
2022-12-31T03:31:14.767Z,28.82
2022-12-31T03:33:45.741Z,28.85
2022-12-31T03:36:16.683Z,28.88
2022-12-31T03:38:51.186Z,28.90
2022-12-31T03:41:23.220Z,28.92
2022-12-31T03:43:53.969Z,28.91
2022-12-31T03:46:24.916Z,28.95
2022-12-31T03:48:55.529Z,28.98
2022-12-31T03:51:26.645Z,29.01
2022-12-31T03:53:57.286Z,29.03
2022-12-31T03:56:27.875Z,29.04
2022-12-31T03:58:58.485Z,29.07
2022-12-31T04:01:29.092Z,29.08
2022-12-31T04:03:59.825Z,29.10
2022-12-31T04:06:30.589Z,29.12
2022-12-31T04:09:01.509Z,29.14
2022-12-31T04:11:32.021Z,29.17
2022-12-31T04:14:03.931Z,29.20
2022-12-31T04:16:34.631Z,29.22
2022-12-31T04:19:05.479Z,29.30
2022-12-31T04:21:35.971Z,29.27
2022-12-31T04:24:07.246Z,29.23
2022-12-31T04:26:37.816Z,29.23
2022-12-31T04:29:08.841Z,29.16
2022-12-31T04:31:40.134Z,29.20
2022-12-31T04:34:11.300Z,29.07
2022-12-31T04:36:41.993Z,29.14
2022-12-31T04:39:12.793Z,29.19
2022-12-31T04:41:43.572Z,29.24
2022-12-31T04:44:14.547Z,29.29
2022-12-31T04:46:45.756Z,29.34
2022-12-31T04:49:16.401Z,29.40
2022-12-31T04:51:47.025Z,29.43
2022-12-31T04:54:18.022Z,29.47
2022-12-31T04:56:49.087Z,29.51
2022-12-31T04:59:19.876Z,29.55
2022-12-31T05:01:51.216Z,29.59
2022-12-31T05:04:21.877Z,29.61
2022-12-31T05:06:52.480Z,29.73
2022-12-31T05:09:25.509Z,29.69
2022-12-31T05:11:56.980Z,29.69
2022-12-31T05:14:27.565Z,29.65
2022-12-31T05:16:59.751Z,29.63
2022-12-31T05:19:30.283Z,29.62
2022-12-31T05:22:19.095Z,29.58
2022-12-31T05:24:49.595Z,29.53
2022-12-31T05:27:20.544Z,29.44
2022-12-31T05:29:51.382Z,29.38
2022-12-31T05:32:22.014Z,29.31
2022-12-31T05:34:52.847Z,29.23
2022-12-31T05:37:23.885Z,29.20
2022-12-31T05:39:54.535Z,29.17
2022-12-31T05:42:25.911Z,29.12
2022-12-31T05:44:56.780Z,29.07
2022-12-31T05:47:28.824Z,29.04
2022-12-31T05:49:59.270Z,29.00
2022-12-31T05:52:30.268Z,28.95
2022-12-31T05:55:01.305Z,28.94
2022-12-31T05:57:32.335Z,28.89
2022-12-31T06:00:02.904Z,28.90
2022-12-31T06:02:43.576Z,28.85
2022-12-31T06:05:14.252Z,28.81
2022-12-31T06:07:45.333Z,28.81
2022-12-31T06:10:16.168Z,28.82
2022-12-31T06:12:46.806Z,28.78
2022-12-31T06:15:17.928Z,28.77
2022-12-31T06:17:48.619Z,28.77
2022-12-31T06:20:19.527Z,28.75
2022-12-31T06:22:50.492Z,28.76
2022-12-31T06:25:21.099Z,28.74
2022-12-31T06:27:51.800Z,28.74
2022-12-31T06:30:22.643Z,28.76
2022-12-31T06:32:53.304Z,28.76
2022-12-31T06:35:24.087Z,28.76
2022-12-31T06:37:55.089Z,28.74
2022-12-31T06:40:25.682Z,28.72
2022-12-31T06:42:59.915Z,28.71
2022-12-31T06:45:31.037Z,28.71
2022-12-31T06:48:01.689Z,28.73
2022-12-31T06:50:32.253Z,28.66
2022-12-31T06:53:03.257Z,28.73
2022-12-31T06:55:34.084Z,28.71
2022-12-31T06:58:05.776Z,28.71
2022-12-31T07:00:36.390Z,28.71
2022-12-31T07:03:19.075Z,28.70
2022-12-31T07:06:04.173Z,28.69
2022-12-31T07:08:37.488Z,28.70
2022-12-31T07:11:13.076Z,28.73
2022-12-31T07:13:51.372Z,28.82
2022-12-31T07:16:22.073Z,28.95
2022-12-31T07:19:01.868Z,29.04
2022-12-31T07:21:35.452Z,29.12
2022-12-31T07:24:08.421Z,29.20
2022-12-31T07:26:38.902Z,29.26
2022-12-31T07:29:18.872Z,29.31
2022-12-31T07:32:01.986Z,29.37
2022-12-31T07:34:35.713Z,29.42
2022-12-31T07:37:16.751Z,29.47
2022-12-31T07:40:10.200Z,29.50
2022-12-31T07:42:53.056Z,29.56
2022-12-31T07:45:29.124Z,29.60
2022-12-31T07:48:02.762Z,29.65
2022-12-31T07:50:33.843Z,29.67
2022-12-31T07:53:05.625Z,29.68
2022-12-31T07:55:36.231Z,29.73
2022-12-31T07:58:33.210Z,29.73
2022-12-31T08:01:04.955Z,29.81
2022-12-31T08:03:43.534Z,29.87
2022-12-31T08:06:19.258Z,29.93
2022-12-31T08:09:03.292Z,29.98
2022-12-31T08:11:45.790Z,30.03
2022-12-31T08:14:17.121Z,30.07
2022-12-31T08:16:48.105Z,30.11
2022-12-31T08:19:35.117Z,30.15
2022-12-31T08:22:15.795Z,30.18
2022-12-31T08:24:56.909Z,30.23
2022-12-31T08:27:37.787Z,30.27
2022-12-31T08:30:12.892Z,30.31
2022-12-31T08:32:48.553Z,30.32
2022-12-31T08:35:19.175Z,30.33
2022-12-31T08:37:52.601Z,30.35
2022-12-31T08:40:44.552Z,30.38
2022-12-31T08:43:26.709Z,30.40
2022-12-31T08:45:58.627Z,30.43
2022-12-31T08:48:32.299Z,30.43
2022-12-31T08:51:03.477Z,30.45
2022-12-31T08:53:36.643Z,30.47
2022-12-31T08:56:12.302Z,30.49
2022-12-31T08:58:55.927Z,30.51
2022-12-31T09:01:29.043Z,30.51
2022-12-31T09:03:59.729Z,30.55
2022-12-31T09:06:35.840Z,30.56
2022-12-31T09:09:18.338Z,30.55
2022-12-31T09:11:49.011Z,30.55
2022-12-31T09:14:38.183Z,30.56
2022-12-31T09:17:15.052Z,30.58
2022-12-31T09:19:45.692Z,30.55
2022-12-31T09:22:16.376Z,30.60
2022-12-31T09:24:47.001Z,30.61
2022-12-31T09:27:21.180Z,30.61
2022-12-31T09:30:09.697Z,30.63
2022-12-31T09:33:03.104Z,30.65
2022-12-31T09:35:40.298Z,30.65
2022-12-31T09:38:11.881Z,30.65
2022-12-31T09:40:48.665Z,30.65
2022-12-31T09:43:37.356Z,30.61
2022-12-31T09:46:17.136Z,30.64
2022-12-31T09:48:47.741Z,30.58
2022-12-31T09:51:25.697Z,30.62
2022-12-31T09:54:14.795Z,30.60
2022-12-31T09:57:01.225Z,30.63
2022-12-31T09:59:34.829Z,30.66
2022-12-31T10:02:19.032Z,30.62
2022-12-31T10:05:08.065Z,30.63
2022-12-31T10:07:52.795Z,30.62
2022-12-31T10:10:42.033Z,30.61
2022-12-31T10:13:30.810Z,30.59
2022-12-31T10:16:19.618Z,30.58
2022-12-31T10:18:50.223Z,30.56
2022-12-31T10:21:44.004Z,30.56
2022-12-31T10:24:29.933Z,30.55
2022-12-31T10:27:14.340Z,30.58
2022-12-31T10:29:48.490Z,30.58
2022-12-31T10:32:29.391Z,30.60
2022-12-31T10:35:01.886Z,30.58
2022-12-31T10:37:45.668Z,30.58
2022-12-31T10:40:32.703Z,30.59
2022-12-31T10:43:21.484Z,30.60
2022-12-31T10:46:07.190Z,30.59
2022-12-31T10:48:50.009Z,30.58
2022-12-31T10:51:39.626Z,30.57
2022-12-31T10:54:20.877Z,30.55
2022-12-31T10:57:10.552Z,30.54
2022-12-31T10:59:59.279Z,30.51
2022-12-31T11:02:33.007Z,30.50
2022-12-31T11:05:25.185Z,30.49
2022-12-31T11:08:14.377Z,30.48
2022-12-31T11:10:55.320Z,30.47
2022-12-31T11:13:44.814Z,30.46
2022-12-31T11:16:22.217Z,30.46
2022-12-31T11:19:11.159Z,30.44
2022-12-31T11:21:49.963Z,30.43
2022-12-31T11:24:43.786Z,30.43
2022-12-31T11:27:32.698Z,30.42
2022-12-31T11:30:06.461Z,30.40
2022-12-31T11:32:52.389Z,30.39
2022-12-31T11:35:43.041Z,30.38
2022-12-31T11:38:23.380Z,30.37
2022-12-31T11:40:55.623Z,30.35
2022-12-31T11:43:26.329Z,30.38
2022-12-31T11:46:20.493Z,30.31
2022-12-31T11:49:09.177Z,30.24
2022-12-31T11:51:50.411Z,30.17
2022-12-31T11:54:33.181Z,30.11
2022-12-31T11:57:16.168Z,30.06
2022-12-31T11:59:47.045Z,30.05
2022-12-31T12:02:27.577Z,30.05
2022-12-31T12:05:05.033Z,30.03
2022-12-31T12:07:41.445Z,30.02
2022-12-31T12:10:38.839Z,30.01
2022-12-31T12:13:15.079Z,30.03
2022-12-31T12:15:48.967Z,30.01
2022-12-31T12:18:38.434Z,30.00
2022-12-31T12:21:11.819Z,29.98
2022-12-31T12:23:44.043Z,29.99
2022-12-31T12:26:32.357Z,29.94
2022-12-31T12:29:11.014Z,29.96
2022-12-31T12:31:42.586Z,29.98
2022-12-31T12:34:26.840Z,29.93
2022-12-31T12:36:57.624Z,29.96
2022-12-31T12:39:30.363Z,29.92
2022-12-31T12:42:05.544Z,29.93
2022-12-31T12:44:37.328Z,29.93
2022-12-31T12:47:09.217Z,29.93
2022-12-31T12:49:41.577Z,29.94
2022-12-31T12:52:27.729Z,29.96
2022-12-31T12:54:58.381Z,30.00
2022-12-31T12:57:29.417Z,30.00
2022-12-31T13:00:00.054Z,30.02
2022-12-31T13:02:50.310Z,30.06
2022-12-31T13:05:27.664Z,30.11
2022-12-31T13:08:11.925Z,30.07
2022-12-31T13:11:07.898Z,30.04
2022-12-31T13:13:56.628Z,29.94
2022-12-31T13:16:27.176Z,29.89
2022-12-31T13:19:16.525Z,29.83
2022-12-31T13:21:51.065Z,29.78
2022-12-31T13:24:29.019Z,29.75
2022-12-31T13:26:59.831Z,29.68
2022-12-31T13:29:33.010Z,29.60
2022-12-31T13:32:06.555Z,29.60
2022-12-31T13:34:41.836Z,29.58
2022-12-31T13:37:24.442Z,29.51
2022-12-31T13:39:59.773Z,29.55
2022-12-31T13:42:38.209Z,29.56
2022-12-31T13:45:20.841Z,29.57
2022-12-31T13:47:54.525Z,29.57
2022-12-31T13:50:31.436Z,29.58
2022-12-31T13:53:04.946Z,29.58
2022-12-31T13:56:03.545Z,29.55
2022-12-31T13:58:34.880Z,29.55
2022-12-31T14:01:11.922Z,29.55
2022-12-31T14:03:49.522Z,29.61
2022-12-31T14:06:36.445Z,29.62
2022-12-31T14:09:07.805Z,29.59
2022-12-31T14:11:47.521Z,29.61
2022-12-31T14:14:21.274Z,29.58
2022-12-31T14:16:52.000Z,29.59
2022-12-31T14:19:31.109Z,29.56
2022-12-31T14:22:06.895Z,29.57
2022-12-31T14:24:48.502Z,29.55
2022-12-31T14:27:24.898Z,29.55
2022-12-31T14:30:03.591Z,29.53
2022-12-31T14:32:57.545Z,29.51
2022-12-31T14:35:37.372Z,29.51
2022-12-31T14:38:14.498Z,29.48
2022-12-31T14:40:52.536Z,29.48
2022-12-31T14:43:41.332Z,29.44
2022-12-31T14:46:15.687Z,29.44
2022-12-31T14:49:08.547Z,29.40
2022-12-31T14:51:39.236Z,29.42
2022-12-31T14:54:29.424Z,29.41
2022-12-31T14:57:00.246Z,29.38
2022-12-31T14:59:38.728Z,29.37
2022-12-31T15:02:31.256Z,29.35
2022-12-31T15:05:21.944Z,29.34
2022-12-31T15:08:04.658Z,29.33
2022-12-31T15:10:50.080Z,29.32
2022-12-31T15:13:38.977Z,29.32
2022-12-31T15:16:15.771Z,29.31
2022-12-31T15:18:55.103Z,29.30
2022-12-31T15:21:28.581Z,29.30
2022-12-31T15:23:59.324Z,29.29
2022-12-31T15:26:36.135Z,29.28
2022-12-31T15:29:07.904Z,29.28
2022-12-31T15:31:46.433Z,29.26
2022-12-31T15:34:43.470Z,29.25
2022-12-31T15:37:37.004Z,29.26
2022-12-31T15:40:22.657Z,29.23
2022-12-31T15:43:00.108Z,29.22
2022-12-31T15:45:35.392Z,29.20
2022-12-31T15:48:11.137Z,29.22
2022-12-31T15:50:43.704Z,29.20
2022-12-31T15:53:28.291Z,29.18
2022-12-31T15:56:00.539Z,29.17
2022-12-31T15:58:38.557Z,29.10
2022-12-31T16:01:09.618Z,29.12
2022-12-31T16:03:44.365Z,29.24
2022-12-31T16:06:16.511Z,29.24
2022-12-31T16:08:48.249Z,29.13
2022-12-31T16:11:19.656Z,29.07
2022-12-31T16:13:55.576Z,29.03
2022-12-31T16:16:27.480Z,28.99
2022-12-31T16:18:59.282Z,28.92
2022-12-31T16:21:34.377Z,28.90
2022-12-31T16:24:25.435Z,28.83
2022-12-31T16:26:57.926Z,28.75
2022-12-31T16:29:28.563Z,28.70
2022-12-31T16:31:59.474Z,28.68
2022-12-31T16:34:30.794Z,28.65
2022-12-31T16:37:05.823Z,28.57
2022-12-31T16:39:37.863Z,28.57
2022-12-31T16:42:17.314Z,28.51
2022-12-31T16:44:48.864Z,28.50
2022-12-31T16:47:24.665Z,28.46
2022-12-31T16:50:16.476Z,28.42
2022-12-31T16:52:49.372Z,28.39
2022-12-31T16:55:22.403Z,28.39
2022-12-31T16:57:57.164Z,28.34
2022-12-31T17:00:28.517Z,28.26
2022-12-31T17:03:18.110Z,28.30
2022-12-31T17:05:57.841Z,28.33
2022-12-31T17:08:30.165Z,28.35
2022-12-31T17:11:00.819Z,28.37
2022-12-31T17:13:33.482Z,28.39
2022-12-31T17:16:04.387Z,28.39
2022-12-31T17:18:39.377Z,28.40
2022-12-31T17:21:11.558Z,28.39
2022-12-31T17:23:43.315Z,28.40
2022-12-31T17:26:23.634Z,28.40
2022-12-31T17:28:55.693Z,28.40
2022-12-31T17:31:40.391Z,28.40
2022-12-31T17:34:16.995Z,28.40
2022-12-31T17:37:01.358Z,28.39
2022-12-31T17:39:44.212Z,28.39
2022-12-31T17:42:15.681Z,28.37
2022-12-31T17:44:46.501Z,28.36
2022-12-31T17:47:17.542Z,28.34
2022-12-31T17:49:48.613Z,28.34
2022-12-31T17:52:19.191Z,28.32
2022-12-31T17:54:49.688Z,28.30
2022-12-31T17:57:26.344Z,28.28
2022-12-31T17:59:57.314Z,28.24
2022-12-31T18:02:28.031Z,28.24
2022-12-31T18:04:59.076Z,28.24
2022-12-31T18:07:29.652Z,28.23
2022-12-31T18:10:00.172Z,28.22
2022-12-31T18:12:31.605Z,28.21
2022-12-31T18:15:02.195Z,28.19
2022-12-31T18:17:34.815Z,28.18
2022-12-31T18:20:06.366Z,28.17
2022-12-31T18:22:37.800Z,28.15
2022-12-31T18:25:08.899Z,28.14
2022-12-31T18:27:41.385Z,28.14
2022-12-31T18:30:12.729Z,28.11
2022-12-31T18:32:43.899Z,28.12
2022-12-31T18:35:40.752Z,28.09
2022-12-31T18:38:13.879Z,28.09
2022-12-31T18:40:48.076Z,28.07
2022-12-31T18:43:19.692Z,28.06
2022-12-31T18:45:50.767Z,28.04
2022-12-31T18:48:21.455Z,28.04
2022-12-31T18:50:52.387Z,28.01
2022-12-31T18:53:24.141Z,28.00
2022-12-31T18:55:56.388Z,28.00
2022-12-31T18:58:26.977Z,27.98
2022-12-31T19:00:57.670Z,27.96
2022-12-31T19:03:29.656Z,27.95
2022-12-31T19:06:00.268Z,27.94
2022-12-31T19:08:30.929Z,27.94
2022-12-31T19:11:01.595Z,27.94
2022-12-31T19:13:32.806Z,27.94
2022-12-31T19:16:03.648Z,27.93
2022-12-31T19:18:34.520Z,27.90
2022-12-31T19:21:05.620Z,27.88
2022-12-31T19:23:36.249Z,27.85
2022-12-31T19:26:06.825Z,27.85
2022-12-31T19:28:37.397Z,27.83
2022-12-31T19:31:07.907Z,27.83
2022-12-31T19:33:38.563Z,27.80
2022-12-31T19:36:15.739Z,27.79
2022-12-31T19:38:46.951Z,27.79
2022-12-31T19:41:19.045Z,27.73
2022-12-31T19:43:49.801Z,27.76
2022-12-31T19:46:20.967Z,27.75
2022-12-31T19:48:51.964Z,27.74
2022-12-31T19:51:23.436Z,27.74
2022-12-31T19:53:53.888Z,27.72
2022-12-31T19:56:24.364Z,27.73
2022-12-31T19:58:55.204Z,27.71
2022-12-31T20:01:26.628Z,27.71
2022-12-31T20:03:58.159Z,27.70
2022-12-31T20:06:28.759Z,27.69
2022-12-31T20:08:59.452Z,27.68
2022-12-31T20:11:30.048Z,27.66
2022-12-31T20:14:00.723Z,27.66
2022-12-31T20:16:35.420Z,27.65
2022-12-31T20:19:07.506Z,27.63
2022-12-31T20:21:38.459Z,27.62
2022-12-31T20:24:09.229Z,27.59
2022-12-31T20:26:39.841Z,27.59
2022-12-31T20:29:10.517Z,27.59
2022-12-31T20:31:41.790Z,27.58
2022-12-31T20:34:12.877Z,27.57
2022-12-31T20:36:43.371Z,27.57
2022-12-31T20:39:13.995Z,27.54
2022-12-31T20:41:44.524Z,27.16
2022-12-31T20:44:15.348Z,27.53
2022-12-31T20:46:45.902Z,27.53
2022-12-31T20:49:23.644Z,27.51
2022-12-31T20:52:02.248Z,27.51
2022-12-31T20:54:33.374Z,27.49
2022-12-31T20:57:04.536Z,27.49
2022-12-31T20:59:35.591Z,27.49
2022-12-31T21:02:22.891Z,27.50
2022-12-31T21:04:57.248Z,27.47
2022-12-31T21:07:27.859Z,27.48
2022-12-31T21:09:58.512Z,27.48
2022-12-31T21:12:47.876Z,27.46
2022-12-31T21:15:18.463Z,27.46
2022-12-31T21:17:49.568Z,27.45
2022-12-31T21:20:20.428Z,27.43
2022-12-31T21:22:51.497Z,27.44
2022-12-31T21:25:22.636Z,27.42
2022-12-31T21:27:53.816Z,27.43
2022-12-31T21:30:24.403Z,27.42
2022-12-31T21:32:55.066Z,27.41
2022-12-31T21:35:45.833Z,27.41
2022-12-31T21:38:16.800Z,27.38
2022-12-31T21:40:47.627Z,27.37
2022-12-31T21:43:18.835Z,27.36
2022-12-31T21:45:49.361Z,27.34
2022-12-31T21:48:23.410Z,27.32
2022-12-31T21:50:55.155Z,27.31
2022-12-31T21:53:34.172Z,27.29
2022-12-31T21:56:10.746Z,27.27
2022-12-31T21:58:46.424Z,27.27
2022-12-31T22:01:39.914Z,27.23
2022-12-31T22:04:35.171Z,27.22
2022-12-31T22:07:01.451Z,27.16
2022-12-31T22:09:32.160Z,27.14
2022-12-31T22:12:02.684Z,27.16
2022-12-31T22:14:33.287Z,27.15
2022-12-31T22:17:03.755Z,27.13
2022-12-31T22:19:48.701Z,27.13
2022-12-31T22:22:24.828Z,27.11
2022-12-31T22:24:55.481Z,27.11
2022-12-31T22:27:28.254Z,27.08
2022-12-31T22:30:00.338Z,27.07
2022-12-31T22:32:32.511Z,27.06
2022-12-31T22:35:03.138Z,27.04
2022-12-31T22:37:56.134Z,27.04
2022-12-31T22:40:24.221Z,27.03
2022-12-31T22:42:54.809Z,27.01
2022-12-31T22:45:25.921Z,27.02
2022-12-31T22:47:56.783Z,27.00
2022-12-31T22:50:27.924Z,27.00
2022-12-31T22:52:58.398Z,27.00
2022-12-31T22:55:29.284Z,27.00
2022-12-31T22:57:59.880Z,26.99
2022-12-31T23:00:40.334Z,26.97
2022-12-31T23:03:10.977Z,27.02
2022-12-31T23:05:42.159Z,27.04
2022-12-31T23:08:20.596Z,27.04
2022-12-31T23:11:07.109Z,27.08
2022-12-31T23:13:58.254Z,27.13
2022-12-31T23:16:48.274Z,27.15
2022-12-31T23:19:36.777Z,27.18
2022-12-31T23:22:25.275Z,27.23
2022-12-31T23:24:55.814Z,27.28
2022-12-31T23:27:26.463Z,27.30
2022-12-31T23:29:56.989Z,27.31
2022-12-31T23:32:27.572Z,27.37
2022-12-31T23:34:59.050Z,27.40
2022-12-31T23:37:29.914Z,27.43
2022-12-31T23:40:01.016Z,27.46
2022-12-31T23:42:31.626Z,27.50
2022-12-31T23:45:02.117Z,27.54
2022-12-31T23:47:33.198Z,27.58
2022-12-31T23:50:04.072Z,27.64
2022-12-31T23:52:35.015Z,27.67
2022-12-31T23:55:05.629Z,27.67
2022-12-31T23:57:36.302Z,27.70
